sensor_id;sensor_type;location;lat;lon;timestamp;temperature;humidity
6496;DHT22;3281;47.658;9.166;2022-11-15T00:01:08;9.00;77.20
6496;DHT22;3281;47.658;9.166;2022-11-15T00:03:35;9.20;81.90
6496;DHT22;3281;47.658;9.166;2022-11-15T00:06:02;9.20;82.90
6496;DHT22;3281;47.658;9.166;2022-11-15T00:08:31;9.20;82.20
6496;DHT22;3281;47.658;9.166;2022-11-15T00:11:00;9.10;77.80
6496;DHT22;3281;47.658;9.166;2022-11-15T00:13:28;9.10;80.70
6496;DHT22;3281;47.658;9.166;2022-11-15T00:15:57;9.00;77.20
6496;DHT22;3281;47.658;9.166;2022-11-15T00:18:24;9.10;80.50
6496;DHT22;3281;47.658;9.166;2022-11-15T00:20:51;9.10;82.20
6496;DHT22;3281;47.658;9.166;2022-11-15T00:23:18;9.20;82.10
6496;DHT22;3281;47.658;9.166;2022-11-15T00:25:46;9.20;80.90
6496;DHT22;3281;47.658;9.166;2022-11-15T00:28:12;9.10;74.70
6496;DHT22;3281;47.658;9.166;2022-11-15T00:30:39;9.00;75.00
6496;DHT22;3281;47.658;9.166;2022-11-15T00:33:06;8.90;72.10
6496;DHT22;3281;47.658;9.166;2022-11-15T00:35:34;8.90;75.60
6496;DHT22;3281;47.658;9.166;2022-11-15T00:38:01;9.30;77.80
6496;DHT22;3281;47.658;9.166;2022-11-15T00:40:28;9.10;73.00
6496;DHT22;3281;47.658;9.166;2022-11-15T00:42:57;9.10;75.10
6496;DHT22;3281;47.658;9.166;2022-11-15T00:45:24;9.10;75.50
6496;DHT22;3281;47.658;9.166;2022-11-15T00:47:51;9.00;72.70
6496;DHT22;3281;47.658;9.166;2022-11-15T00:50:18;8.90;69.10
6496;DHT22;3281;47.658;9.166;2022-11-15T00:52:45;8.80;73.20
6496;DHT22;3281;47.658;9.166;2022-11-15T00:55:13;8.70;73.50
6496;DHT22;3281;47.658;9.166;2022-11-15T00:57:41;8.90;78.80
6496;DHT22;3281;47.658;9.166;2022-11-15T01:00:10;8.80;76.50
6496;DHT22;3281;47.658;9.166;2022-11-15T01:02:37;8.80;76.20
6496;DHT22;3281;47.658;9.166;2022-11-15T01:05:04;8.80;76.10
6496;DHT22;3281;47.658;9.166;2022-11-15T01:07:31;8.80;77.10
6496;DHT22;3281;47.658;9.166;2022-11-15T01:09:58;8.70;80.00
6496;DHT22;3281;47.658;9.166;2022-11-15T01:12:25;8.70;80.50
6496;DHT22;3281;47.658;9.166;2022-11-15T01:14:51;8.80;80.60
6496;DHT22;3281;47.658;9.166;2022-11-15T01:17:20;8.50;70.20
6496;DHT22;3281;47.658;9.166;2022-11-15T01:19:46;8.60;79.60
6496;DHT22;3281;47.658;9.166;2022-11-15T01:22:13;8.50;74.90
6496;DHT22;3281;47.658;9.166;2022-11-15T01:24:40;8.50;77.50
6496;DHT22;3281;47.658;9.166;2022-11-15T01:27:07;8.60;78.20
6496;DHT22;3281;47.658;9.166;2022-11-15T01:29:33;8.60;79.80
6496;DHT22;3281;47.658;9.166;2022-11-15T01:32:00;8.60;76.90
6496;DHT22;3281;47.658;9.166;2022-11-15T01:34:28;8.60;78.50
6496;DHT22;3281;47.658;9.166;2022-11-15T01:36:55;8.70;78.80
6496;DHT22;3281;47.658;9.166;2022-11-15T01:39:22;8.70;78.60
6496;DHT22;3281;47.658;9.166;2022-11-15T01:41:49;8.70;78.50
6496;DHT22;3281;47.658;9.166;2022-11-15T01:44:41;8.70;77.40
6496;DHT22;3281;47.658;9.166;2022-11-15T01:47:12;8.60;77.90
6496;DHT22;3281;47.658;9.166;2022-11-15T01:49:49;8.60;79.20
6496;DHT22;3281;47.658;9.166;2022-11-15T01:52:20;8.60;80.20
6496;DHT22;3281;47.658;9.166;2022-11-15T01:54:51;8.60;80.40
6496;DHT22;3281;47.658;9.166;2022-11-15T01:57:19;8.50;75.50
6496;DHT22;3281;47.658;9.166;2022-11-15T01:59:47;8.60;77.40
6496;DHT22;3281;47.658;9.166;2022-11-15T02:02:14;8.60;79.50
6496;DHT22;3281;47.658;9.166;2022-11-15T02:04:43;8.50;77.20
6496;DHT22;3281;47.658;9.166;2022-11-15T02:07:13;8.70;80.50
6496;DHT22;3281;47.658;9.166;2022-11-15T02:09:41;8.60;78.00
6496;DHT22;3281;47.658;9.166;2022-11-15T02:12:10;8.70;80.20
6496;DHT22;3281;47.658;9.166;2022-11-15T02:14:38;8.70;78.00
6496;DHT22;3281;47.658;9.166;2022-11-15T02:17:21;8.70;79.10
6496;DHT22;3281;47.658;9.166;2022-11-15T02:20:30;8.60;77.70
6496;DHT22;3281;47.658;9.166;2022-11-15T02:23:14;8.60;77.50
6496;DHT22;3281;47.658;9.166;2022-11-15T02:25:56;8.60;78.20
6496;DHT22;3281;47.658;9.166;2022-11-15T02:28:41;8.70;80.40
6496;DHT22;3281;47.658;9.166;2022-11-15T02:31:16;8.60;77.40
6496;DHT22;3281;47.658;9.166;2022-11-15T02:33:53;8.60;77.60
6496;DHT22;3281;47.658;9.166;2022-11-15T02:36:36;8.70;83.30
6496;DHT22;3281;47.658;9.166;2022-11-15T02:39:10;8.90;80.60
6496;DHT22;3281;47.658;9.166;2022-11-15T02:41:45;8.90;80.70
6496;DHT22;3281;47.658;9.166;2022-11-15T02:44:16;8.70;74.80
6496;DHT22;3281;47.658;9.166;2022-11-15T02:46:47;8.60;73.10
6496;DHT22;3281;47.658;9.166;2022-11-15T02:49:34;8.70;76.90
6496;DHT22;3281;47.658;9.166;2022-11-15T02:52:01;8.60;78.60
6496;DHT22;3281;47.658;9.166;2022-11-15T02:54:30;8.70;80.40
6496;DHT22;3281;47.658;9.166;2022-11-15T02:57:00;8.70;77.50
6496;DHT22;3281;47.658;9.166;2022-11-15T03:00:04;8.70;80.50
6496;DHT22;3281;47.658;9.166;2022-11-15T03:02:45;8.80;82.90
6496;DHT22;3281;47.658;9.166;2022-11-15T03:05:19;8.80;80.50
6496;DHT22;3281;47.658;9.166;2022-11-15T03:07:53;8.70;79.50
6496;DHT22;3281;47.658;9.166;2022-11-15T03:10:24;8.70;80.20
6496;DHT22;3281;47.658;9.166;2022-11-15T03:12:56;8.70;76.40
6496;DHT22;3281;47.658;9.166;2022-11-15T03:15:28;8.80;79.00
6496;DHT22;3281;47.658;9.166;2022-11-15T03:18:00;8.80;77.20
6496;DHT22;3281;47.658;9.166;2022-11-15T03:20:28;8.70;74.40
6496;DHT22;3281;47.658;9.166;2022-11-15T03:22:58;8.60;71.80
6496;DHT22;3281;47.658;9.166;2022-11-15T03:25:28;8.70;74.80
6496;DHT22;3281;47.658;9.166;2022-11-15T03:27:58;8.60;71.20
6496;DHT22;3281;47.658;9.166;2022-11-15T03:30:30;8.70;73.80
6496;DHT22;3281;47.658;9.166;2022-11-15T03:33:00;8.70;74.80
6496;DHT22;3281;47.658;9.166;2022-11-15T03:35:32;8.70;76.90
6496;DHT22;3281;47.658;9.166;2022-11-15T03:38:04;8.70;74.60
6496;DHT22;3281;47.658;9.166;2022-11-15T03:40:35;8.50;68.70
6496;DHT22;3281;47.658;9.166;2022-11-15T03:43:07;8.60;74.80
6496;DHT22;3281;47.658;9.166;2022-11-15T03:45:40;8.70;77.50
6496;DHT22;3281;47.658;9.166;2022-11-15T03:48:13;8.60;69.70
6496;DHT22;3281;47.658;9.166;2022-11-15T03:50:41;8.60;74.60
6496;DHT22;3281;47.658;9.166;2022-11-15T03:53:09;8.60;75.80
6496;DHT22;3281;47.658;9.166;2022-11-15T03:55:36;8.60;79.90
6496;DHT22;3281;47.658;9.166;2022-11-15T03:58:03;8.60;74.70
6496;DHT22;3281;47.658;9.166;2022-11-15T04:00:30;8.60;74.60
6496;DHT22;3281;47.658;9.166;2022-11-15T04:02:57;8.60;74.90
6496;DHT22;3281;47.658;9.166;2022-11-15T04:05:25;8.70;77.10
6496;DHT22;3281;47.658;9.166;2022-11-15T04:07:52;8.60;74.70
6496;DHT22;3281;47.658;9.166;2022-11-15T04:10:19;8.70;78.80
6496;DHT22;3281;47.658;9.166;2022-11-15T04:12:46;8.70;74.20
6496;DHT22;3281;47.658;9.166;2022-11-15T04:15:15;8.70;74.70
6496;DHT22;3281;47.658;9.166;2022-11-15T04:17:43;8.80;80.00
6496;DHT22;3281;47.658;9.166;2022-11-15T04:20:13;8.90;73.80
6496;DHT22;3281;47.658;9.166;2022-11-15T04:23:00;8.90;67.30
6496;DHT22;3281;47.658;9.166;2022-11-15T04:25:45;8.80;70.30
6496;DHT22;3281;47.658;9.166;2022-11-15T04:28:12;8.60;68.80
6496;DHT22;3281;47.658;9.166;2022-11-15T04:30:39;8.60;71.00
6496;DHT22;3281;47.658;9.166;2022-11-15T04:33:06;8.80;69.00
6496;DHT22;3281;47.658;9.166;2022-11-15T04:35:32;8.80;68.60
6496;DHT22;3281;47.658;9.166;2022-11-15T04:38:02;8.70;71.20
6496;DHT22;3281;47.658;9.166;2022-11-15T04:40:28;8.50;66.90
6496;DHT22;3281;47.658;9.166;2022-11-15T04:42:55;8.70;72.90
6496;DHT22;3281;47.658;9.166;2022-11-15T04:45:22;8.70;70.30
6496;DHT22;3281;47.658;9.166;2022-11-15T04:47:49;8.70;70.60
6496;DHT22;3281;47.658;9.166;2022-11-15T04:50:16;8.80;69.00
6496;DHT22;3281;47.658;9.166;2022-11-15T04:52:49;8.80;68.50
6496;DHT22;3281;47.658;9.166;2022-11-15T04:55:18;8.80;69.40
6496;DHT22;3281;47.658;9.166;2022-11-15T04:57:45;8.70;69.20
6496;DHT22;3281;47.658;9.166;2022-11-15T05:00:14;8.70;71.60
6496;DHT22;3281;47.658;9.166;2022-11-15T05:02:41;8.70;69.00
6496;DHT22;3281;47.658;9.166;2022-11-15T05:05:25;8.70;74.40
6496;DHT22;3281;47.658;9.166;2022-11-15T05:07:52;8.80;72.90
6496;DHT22;3281;47.658;9.166;2022-11-15T05:10:20;8.90;73.40
6496;DHT22;3281;47.658;9.166;2022-11-15T05:12:47;8.90;70.40
6496;DHT22;3281;47.658;9.166;2022-11-15T05:15:14;8.90;69.10
6496;DHT22;3281;47.658;9.166;2022-11-15T05:17:41;8.90;69.10
6496;DHT22;3281;47.658;9.166;2022-11-15T05:20:08;8.80;69.00
6496;DHT22;3281;47.658;9.166;2022-11-15T05:22:35;8.70;68.90
6496;DHT22;3281;47.658;9.166;2022-11-15T05:25:02;8.70;72.30
6496;DHT22;3281;47.658;9.166;2022-11-15T05:27:31;8.60;72.10
6496;DHT22;3281;47.658;9.166;2022-11-15T05:29:57;8.70;73.20
6496;DHT22;3281;47.658;9.166;2022-11-15T05:32:24;8.70;74.60
6496;DHT22;3281;47.658;9.166;2022-11-15T05:34:51;8.70;74.10
6496;DHT22;3281;47.658;9.166;2022-11-15T05:37:18;8.60;68.90
6496;DHT22;3281;47.658;9.166;2022-11-15T05:39:45;8.60;70.50
6496;DHT22;3281;47.658;9.166;2022-11-15T05:42:13;8.60;71.50
6496;DHT22;3281;47.658;9.166;2022-11-15T05:44:46;8.60;68.90
6496;DHT22;3281;47.658;9.166;2022-11-15T05:47:16;8.60;69.50
6496;DHT22;3281;47.658;9.166;2022-11-15T05:49:44;8.60;71.80
6496;DHT22;3281;47.658;9.166;2022-11-15T05:52:13;8.60;72.70
6496;DHT22;3281;47.658;9.166;2022-11-15T05:54:41;8.50;68.70
6496;DHT22;3281;47.658;9.166;2022-11-15T05:57:08;8.50;72.60
6496;DHT22;3281;47.658;9.166;2022-11-15T05:59:35;8.60;76.40
6496;DHT22;3281;47.658;9.166;2022-11-15T06:02:04;8.50;74.60
6496;DHT22;3281;47.658;9.166;2022-11-15T06:04:30;8.50;73.20
6496;DHT22;3281;47.658;9.166;2022-11-15T06:06:58;8.60;74.80
6496;DHT22;3281;47.658;9.166;2022-11-15T06:09:25;8.60;70.70
6496;DHT22;3281;47.658;9.166;2022-11-15T06:11:52;8.60;71.30
6496;DHT22;3281;47.658;9.166;2022-11-15T06:14:18;8.50;68.70
6496;DHT22;3281;47.658;9.166;2022-11-15T06:16:45;8.60;71.30
6496;DHT22;3281;47.658;9.166;2022-11-15T06:19:13;8.60;68.80
6496;DHT22;3281;47.658;9.166;2022-11-15T06:21:40;8.60;66.80
6496;DHT22;3281;47.658;9.166;2022-11-15T06:24:07;8.60;67.50
6496;DHT22;3281;47.658;9.166;2022-11-15T06:26:33;8.60;72.50
6496;DHT22;3281;47.658;9.166;2022-11-15T06:29:02;8.60;70.90
6496;DHT22;3281;47.658;9.166;2022-11-15T06:31:29;8.50;66.40
6496;DHT22;3281;47.658;9.166;2022-11-15T06:33:56;8.40;68.60
6496;DHT22;3281;47.658;9.166;2022-11-15T06:36:24;8.40;73.20
6496;DHT22;3281;47.658;9.166;2022-11-15T06:38:50;8.50;74.40
6496;DHT22;3281;47.658;9.166;2022-11-15T06:41:17;8.40;71.60
6496;DHT22;3281;47.658;9.166;2022-11-15T06:43:44;8.40;68.60
6496;DHT22;3281;47.658;9.166;2022-11-15T06:46:11;8.50;70.50
6496;DHT22;3281;47.658;9.166;2022-11-15T06:48:38;8.50;72.50
6496;DHT22;3281;47.658;9.166;2022-11-15T06:51:05;8.50;71.20
6496;DHT22;3281;47.658;9.166;2022-11-15T06:53:34;8.30;67.10
6496;DHT22;3281;47.658;9.166;2022-11-15T06:56:02;8.30;68.60
6496;DHT22;3281;47.658;9.166;2022-11-15T06:58:29;8.30;66.30
6496;DHT22;3281;47.658;9.166;2022-11-15T07:00:58;8.30;74.10
6496;DHT22;3281;47.658;9.166;2022-11-15T07:03:25;8.30;68.60
6496;DHT22;3281;47.658;9.166;2022-11-15T07:05:53;8.40;64.20
6496;DHT22;3281;47.658;9.166;2022-11-15T07:08:20;8.50;61.60
6496;DHT22;3281;47.658;9.166;2022-11-15T07:10:49;8.50;59.30
6496;DHT22;3281;47.658;9.166;2022-11-15T07:13:15;8.40;60.80
6496;DHT22;3281;47.658;9.166;2022-11-15T07:15:42;8.40;65.00
6496;DHT22;3281;47.658;9.166;2022-11-15T07:18:09;8.50;65.10
6496;DHT22;3281;47.658;9.166;2022-11-15T07:20:36;8.60;64.60
6496;DHT22;3281;47.658;9.166;2022-11-15T07:23:04;8.50;62.90
6496;DHT22;3281;47.658;9.166;2022-11-15T07:25:31;8.60;61.50
6496;DHT22;3281;47.658;9.166;2022-11-15T07:28:00;8.60;64.70
6496;DHT22;3281;47.658;9.166;2022-11-15T07:30:27;8.60;63.60
6496;DHT22;3281;47.658;9.166;2022-11-15T07:32:54;8.70;66.60
6496;DHT22;3281;47.658;9.166;2022-11-15T07:35:21;8.70;58.30
6496;DHT22;3281;47.658;9.166;2022-11-15T07:37:54;8.60;57.40
6496;DHT22;3281;47.658;9.166;2022-11-15T07:40:21;8.60;57.40
6496;DHT22;3281;47.658;9.166;2022-11-15T07:42:48;8.70;57.70
6496;DHT22;3281;47.658;9.166;2022-11-15T07:45:24;8.70;58.60
6496;DHT22;3281;47.658;9.166;2022-11-15T07:47:52;8.70;60.00
6496;DHT22;3281;47.658;9.166;2022-11-15T07:50:19;8.80;58.60
6496;DHT22;3281;47.658;9.166;2022-11-15T07:52:46;8.80;61.20
6496;DHT22;3281;47.658;9.166;2022-11-15T07:55:13;8.90;57.60
6496;DHT22;3281;47.658;9.166;2022-11-15T07:57:40;8.70;54.40
6496;DHT22;3281;47.658;9.166;2022-11-15T08:00:08;8.80;60.80
6496;DHT22;3281;47.658;9.166;2022-11-15T08:02:36;8.90;57.20
6496;DHT22;3281;47.658;9.166;2022-11-15T08:05:03;8.90;55.80
6496;DHT22;3281;47.658;9.166;2022-11-15T08:07:30;8.80;53.50
6496;DHT22;3281;47.658;9.166;2022-11-15T08:09:57;8.90;57.70
6496;DHT22;3281;47.658;9.166;2022-11-15T08:12:26;8.80;57.60
6496;DHT22;3281;47.658;9.166;2022-11-15T08:14:54;8.70;58.20
6496;DHT22;3281;47.658;9.166;2022-11-15T08:17:21;8.70;57.50
6496;DHT22;3281;47.658;9.166;2022-11-15T08:19:49;8.80;58.80
6496;DHT22;3281;47.658;9.166;2022-11-15T08:22:16;8.80;57.60
6496;DHT22;3281;47.658;9.166;2022-11-15T08:24:43;9.00;59.40
6496;DHT22;3281;47.658;9.166;2022-11-15T08:27:10;9.10;57.50
6496;DHT22;3281;47.658;9.166;2022-11-15T08:29:41;9.10;56.90
6496;DHT22;3281;47.658;9.166;2022-11-15T08:32:08;9.00;57.50
6496;DHT22;3281;47.658;9.166;2022-11-15T08:34:35;9.00;57.60
6496;DHT22;3281;47.658;9.166;2022-11-15T08:37:03;9.00;54.70
6496;DHT22;3281;47.658;9.166;2022-11-15T08:39:30;9.10;55.80
6496;DHT22;3281;47.658;9.166;2022-11-15T08:41:57;9.00;54.50
6496;DHT22;3281;47.658;9.166;2022-11-15T08:44:24;8.90;57.50
6496;DHT22;3281;47.658;9.166;2022-11-15T08:46:51;9.00;57.80
6496;DHT22;3281;47.658;9.166;2022-11-15T08:49:18;9.00;59.20
6496;DHT22;3281;47.658;9.166;2022-11-15T08:51:45;9.10;58.70
6496;DHT22;3281;47.658;9.166;2022-11-15T08:54:13;9.20;61.40
6496;DHT22;3281;47.658;9.166;2022-11-15T08:56:39;9.30;55.70
6496;DHT22;3281;47.658;9.166;2022-11-15T08:59:06;9.40;52.90
6496;DHT22;3281;47.658;9.166;2022-11-15T09:01:33;9.40;51.50
6496;DHT22;3281;47.658;9.166;2022-11-15T09:04:00;9.40;50.70
6496;DHT22;3281;47.658;9.166;2022-11-15T09:06:26;9.40;53.90
6496;DHT22;3281;47.658;9.166;2022-11-15T09:08:53;9.60;54.00
6496;DHT22;3281;47.658;9.166;2022-11-15T09:11:21;9.50;50.60
6496;DHT22;3281;47.658;9.166;2022-11-15T09:13:49;9.50;52.10
6496;DHT22;3281;47.658;9.166;2022-11-15T09:16:15;9.60;51.10
6496;DHT22;3281;47.658;9.166;2022-11-15T09:18:42;9.60;51.90
6496;DHT22;3281;47.658;9.166;2022-11-15T09:21:10;9.70;49.30
6496;DHT22;3281;47.658;9.166;2022-11-15T09:23:37;9.80;49.70
6496;DHT22;3281;47.658;9.166;2022-11-15T09:26:04;9.80;51.30
6496;DHT22;3281;47.658;9.166;2022-11-15T09:28:33;9.90;51.40
6496;DHT22;3281;47.658;9.166;2022-11-15T09:31:02;9.90;53.00
6496;DHT22;3281;47.658;9.166;2022-11-15T09:33:29;9.90;53.40
6496;DHT22;3281;47.658;9.166;2022-11-15T09:36:00;9.80;50.30
6496;DHT22;3281;47.658;9.166;2022-11-15T09:38:27;9.90;52.90
6496;DHT22;3281;47.658;9.166;2022-11-15T09:41:14;9.80;48.80
6496;DHT22;3281;47.658;9.166;2022-11-15T09:43:50;10.00;51.00
6496;DHT22;3281;47.658;9.166;2022-11-15T09:46:26;9.90;48.00
6496;DHT22;3281;47.658;9.166;2022-11-15T09:48:57;10.00;48.90
6496;DHT22;3281;47.658;9.166;2022-11-15T09:51:28;9.90;44.80
6496;DHT22;3281;47.658;9.166;2022-11-15T09:54:00;10.00;47.30
6496;DHT22;3281;47.658;9.166;2022-11-15T09:56:30;10.10;47.40
6496;DHT22;3281;47.658;9.166;2022-11-15T09:59:05;10.10;47.20
6496;DHT22;3281;47.658;9.166;2022-11-15T10:01:41;9.90;39.70
6496;DHT22;3281;47.658;9.166;2022-11-15T10:04:10;10.00;43.70
6496;DHT22;3281;47.658;9.166;2022-11-15T10:06:42;10.00;44.80
6496;DHT22;3281;47.658;9.166;2022-11-15T10:09:14;9.90;37.50
6496;DHT22;3281;47.658;9.166;2022-11-15T10:11:42;10.00;40.10
6496;DHT22;3281;47.658;9.166;2022-11-15T10:14:13;10.00;42.10
6496;DHT22;3281;47.658;9.166;2022-11-15T10:16:53;10.10;43.00
6496;DHT22;3281;47.658;9.166;2022-11-15T10:19:28;10.10;40.70
6496;DHT22;3281;47.658;9.166;2022-11-15T10:22:09;10.10;43.00
6496;DHT22;3281;47.658;9.166;2022-11-15T10:24:42;10.10;38.90
6496;DHT22;3281;47.658;9.166;2022-11-15T10:27:11;10.20;42.20
6496;DHT22;3281;47.658;9.166;2022-11-15T10:29:44;9.90;35.50
6496;DHT22;3281;47.658;9.166;2022-11-15T10:32:14;9.90;37.00
6496;DHT22;3281;47.658;9.166;2022-11-15T10:34:41;9.80;37.40
6496;DHT22;3281;47.658;9.166;2022-11-15T10:37:08;9.90;42.60
6496;DHT22;3281;47.658;9.166;2022-11-15T10:39:35;9.80;43.30
6496;DHT22;3281;47.658;9.166;2022-11-15T10:42:15;9.60;37.20
6496;DHT22;3281;47.658;9.166;2022-11-15T10:44:44;9.80;40.90
6496;DHT22;3281;47.658;9.166;2022-11-15T10:47:24;9.80;40.90
6496;DHT22;3281;47.658;9.166;2022-11-15T10:50:27;9.80;40.90
6496;DHT22;3281;47.658;9.166;2022-11-15T10:52:54;9.70;39.70
6496;DHT22;3281;47.658;9.166;2022-11-15T10:55:26;9.70;46.20
6496;DHT22;3281;47.658;9.166;2022-11-15T10:57:56;9.90;48.20
6496;DHT22;3281;47.658;9.166;2022-11-15T11:00:33;9.90;46.40
6496;DHT22;3281;47.658;9.166;2022-11-15T11:03:02;10.00;42.70
6496;DHT22;3281;47.658;9.166;2022-11-15T11:05:32;10.10;40.90
6496;DHT22;3281;47.658;9.166;2022-11-15T11:08:03;9.90;37.50
6496;DHT22;3281;47.658;9.166;2022-11-15T11:10:30;9.90;45.50
6496;DHT22;3281;47.658;9.166;2022-11-15T11:13:12;10.00;42.40
6496;DHT22;3281;47.658;9.166;2022-11-15T11:15:44;10.00;41.90
6496;DHT22;3281;47.658;9.166;2022-11-15T11:18:19;10.10;40.30
6496;DHT22;3281;47.658;9.166;2022-11-15T11:20:51;9.90;41.90
6496;DHT22;3281;47.658;9.166;2022-11-15T11:23:37;10.00;38.00
6496;DHT22;3281;47.658;9.166;2022-11-15T11:26:14;10.00;36.70
6496;DHT22;3281;47.658;9.166;2022-11-15T11:28:52;10.10;41.20
6496;DHT22;3281;47.658;9.166;2022-11-15T11:31:27;10.00;37.50
6496;DHT22;3281;47.658;9.166;2022-11-15T11:34:04;10.10;42.20
6496;DHT22;3281;47.658;9.166;2022-11-15T11:36:40;10.00;36.70
6496;DHT22;3281;47.658;9.166;2022-11-15T11:39:23;10.00;39.60
6496;DHT22;3281;47.658;9.166;2022-11-15T11:42:00;10.10;36.80
6496;DHT22;3281;47.658;9.166;2022-11-15T11:44:33;10.20;41.30
6496;DHT22;3281;47.658;9.166;2022-11-15T11:47:07;10.10;42.30
6496;DHT22;3281;47.658;9.166;2022-11-15T11:49:42;10.30;42.10
6496;DHT22;3281;47.658;9.166;2022-11-15T11:52:15;10.40;44.00
6496;DHT22;3281;47.658;9.166;2022-11-15T11:54:56;10.40;37.00
6496;DHT22;3281;47.658;9.166;2022-11-15T11:57:32;10.40;37.00
6496;DHT22;3281;47.658;9.166;2022-11-15T12:00:04;10.40;37.70
6496;DHT22;3281;47.658;9.166;2022-11-15T12:02:40;10.40;35.50
6496;DHT22;3281;47.658;9.166;2022-11-15T12:05:13;10.40;37.10
6496;DHT22;3281;47.658;9.166;2022-11-15T12:07:43;10.40;36.50
6496;DHT22;3281;47.658;9.166;2022-11-15T12:10:23;10.40;35.40
6496;DHT22;3281;47.658;9.166;2022-11-15T12:12:55;10.40;37.00
6496;DHT22;3281;47.658;9.166;2022-11-15T12:15:27;10.50;33.90
6496;DHT22;3281;47.658;9.166;2022-11-15T12:17:57;10.60;37.20
6496;DHT22;3281;47.658;9.166;2022-11-15T12:20:26;10.70;35.60
6496;DHT22;3281;47.658;9.166;2022-11-15T12:22:56;10.80;32.00
6496;DHT22;3281;47.658;9.166;2022-11-15T12:25:28;10.80;33.20
6496;DHT22;3281;47.658;9.166;2022-11-15T12:27:59;10.80;34.10
6496;DHT22;3281;47.658;9.166;2022-11-15T12:30:41;10.80;39.20
6496;DHT22;3281;47.658;9.166;2022-11-15T12:33:35;10.80;35.60
6496;DHT22;3281;47.658;9.166;2022-11-15T12:36:04;10.80;34.30
6496;DHT22;3281;47.658;9.166;2022-11-15T12:38:53;10.90;38.30
6496;DHT22;3281;47.658;9.166;2022-11-15T12:41:23;10.90;37.40
6496;DHT22;3281;47.658;9.166;2022-11-15T12:43:50;11.00;37.40
6496;DHT22;3281;47.658;9.166;2022-11-15T12:46:23;11.10;36.60
6496;DHT22;3281;47.658;9.166;2022-11-15T12:49:02;11.10;36.10
6496;DHT22;3281;47.658;9.166;2022-11-15T12:54:56;11.20;34.60
6496;DHT22;3281;47.658;9.166;2022-11-15T12:57:39;11.20;32.20
6496;DHT22;3281;47.658;9.166;2022-11-15T13:03:25;11.20;34.90
6496;DHT22;3281;47.658;9.166;2022-11-15T13:06:08;11.20;37.60
6496;DHT22;3281;47.658;9.166;2022-11-15T13:08:49;11.30;38.20
6496;DHT22;3281;47.658;9.166;2022-11-15T13:11:42;11.30;35.00
6496;DHT22;3281;47.658;9.166;2022-11-15T13:17:33;11.40;35.20
6496;DHT22;3281;47.658;9.166;2022-11-15T13:20:17;11.40;35.00
6496;DHT22;3281;47.658;9.166;2022-11-15T13:22:47;11.40;35.00
6496;DHT22;3281;47.658;9.166;2022-11-15T13:25:25;11.40;32.30
6496;DHT22;3281;47.658;9.166;2022-11-15T13:27:54;11.30;28.90
6496;DHT22;3281;47.658;9.166;2022-11-15T13:30:24;11.30;32.80
6496;DHT22;3281;47.658;9.166;2022-11-15T13:32:52;11.30;33.40
6496;DHT22;3281;47.658;9.166;2022-11-15T13:35:21;11.30;37.70
6496;DHT22;3281;47.658;9.166;2022-11-15T13:37:50;11.30;34.00
6496;DHT22;3281;47.658;9.166;2022-11-15T13:40:26;11.20;30.40
6496;DHT22;3281;47.658;9.166;2022-11-15T13:42:55;11.20;32.90
6496;DHT22;3281;47.658;9.166;2022-11-15T13:45:23;11.20;32.40
6496;DHT22;3281;47.658;9.166;2022-11-15T13:47:57;11.20;35.20
6496;DHT22;3281;47.658;9.166;2022-11-15T13:50:26;11.20;35.90
6496;DHT22;3281;47.658;9.166;2022-11-15T13:52:58;11.30;32.30
6496;DHT22;3281;47.658;9.166;2022-11-15T13:55:29;11.20;33.60
6496;DHT22;3281;47.658;9.166;2022-11-15T13:57:59;11.20;37.70
6496;DHT22;3281;47.658;9.166;2022-11-15T14:00:35;11.20;37.80
6496;DHT22;3281;47.658;9.166;2022-11-15T14:03:11;11.20;37.70
6496;DHT22;3281;47.658;9.166;2022-11-15T14:05:40;11.30;39.90
6496;DHT22;3281;47.658;9.166;2022-11-15T14:08:22;11.20;40.20
6496;DHT22;3281;47.658;9.166;2022-11-15T14:11:06;11.20;39.60
6496;DHT22;3281;47.658;9.166;2022-11-15T14:13:33;11.30;41.70
6496;DHT22;3281;47.658;9.166;2022-11-15T14:16:13;11.30;41.60
6496;DHT22;3281;47.658;9.166;2022-11-15T14:18:46;11.30;37.90
6496;DHT22;3281;47.658;9.166;2022-11-15T14:21:13;11.20;39.60
6496;DHT22;3281;47.658;9.166;2022-11-15T14:23:41;11.20;37.70
6496;DHT22;3281;47.658;9.166;2022-11-15T14:26:26;11.30;40.90
6496;DHT22;3281;47.658;9.166;2022-11-15T14:28:53;11.30;37.70
6496;DHT22;3281;47.658;9.166;2022-11-15T14:31:20;11.30;36.00
6496;DHT22;3281;47.658;9.166;2022-11-15T14:33:47;11.20;32.90
6496;DHT22;3281;47.658;9.166;2022-11-15T14:36:16;11.20;34.30
6496;DHT22;3281;47.658;9.166;2022-11-15T14:38:44;11.20;36.00
6496;DHT22;3281;47.658;9.166;2022-11-15T14:41:18;11.20;34.70
6496;DHT22;3281;47.658;9.166;2022-11-15T14:43:45;11.20;34.20
6496;DHT22;3281;47.658;9.166;2022-11-15T14:46:12;11.10;36.00
6496;DHT22;3281;47.658;9.166;2022-11-15T14:48:38;11.10;36.20
6496;DHT22;3281;47.658;9.166;2022-11-15T14:51:11;11.00;34.90
6496;DHT22;3281;47.658;9.166;2022-11-15T14:53:38;11.10;36.40
6496;DHT22;3281;47.658;9.166;2022-11-15T14:56:06;11.10;37.60
6496;DHT22;3281;47.658;9.166;2022-11-15T14:58:33;11.10;37.60
6496;DHT22;3281;47.658;9.166;2022-11-15T15:01:02;11.00;37.50
6496;DHT22;3281;47.658;9.166;2022-11-15T15:03:29;11.00;34.20
6496;DHT22;3281;47.658;9.166;2022-11-15T15:05:55;11.00;37.50
6496;DHT22;3281;47.658;9.166;2022-11-15T15:08:22;10.90;35.90
6496;DHT22;3281;47.658;9.166;2022-11-15T15:10:49;10.90;38.40
6496;DHT22;3281;47.658;9.166;2022-11-15T15:13:19;10.90;37.50
6496;DHT22;3281;47.658;9.166;2022-11-15T15:15:46;10.90;37.50
6496;DHT22;3281;47.658;9.166;2022-11-15T15:18:13;10.90;37.40
6496;DHT22;3281;47.658;9.166;2022-11-15T15:20:42;10.90;39.10
6496;DHT22;3281;47.658;9.166;2022-11-15T15:23:15;11.00;37.50
6496;DHT22;3281;47.658;9.166;2022-11-15T15:25:42;11.00;37.60
6496;DHT22;3281;47.658;9.166;2022-11-15T15:28:09;10.90;39.30
6496;DHT22;3281;47.658;9.166;2022-11-15T15:30:37;10.90;40.80
6496;DHT22;3281;47.658;9.166;2022-11-15T15:33:04;10.80;41.90
6496;DHT22;3281;47.658;9.166;2022-11-15T15:35:33;10.90;45.20
6496;DHT22;3281;47.658;9.166;2022-11-15T15:38:01;10.80;42.90
6496;DHT22;3281;47.658;9.166;2022-11-15T15:40:29;10.80;42.80
6496;DHT22;3281;47.658;9.166;2022-11-15T15:42:57;10.80;43.30
6496;DHT22;3281;47.658;9.166;2022-11-15T15:45:25;10.80;46.90
6496;DHT22;3281;47.658;9.166;2022-11-15T15:47:53;10.80;45.50
6496;DHT22;3281;47.658;9.166;2022-11-15T15:50:23;10.80;43.10
6496;DHT22;3281;47.658;9.166;2022-11-15T15:52:50;10.80;41.40
6496;DHT22;3281;47.658;9.166;2022-11-15T15:55:18;10.80;39.20
6496;DHT22;3281;47.658;9.166;2022-11-15T15:57:45;10.80;44.90
6496;DHT22;3281;47.658;9.166;2022-11-15T16:00:12;10.80;42.90
6496;DHT22;3281;47.658;9.166;2022-11-15T16:02:39;10.80;41.10
6496;DHT22;3281;47.658;9.166;2022-11-15T16:05:08;10.80;43.90
6496;DHT22;3281;47.658;9.166;2022-11-15T16:07:35;10.80;44.10
6496;DHT22;3281;47.658;9.166;2022-11-15T16:10:04;10.80;47.80
6496;DHT22;3281;47.658;9.166;2022-11-15T16:12:39;10.70;45.10
6496;DHT22;3281;47.658;9.166;2022-11-15T16:15:08;10.80;48.00
6496;DHT22;3281;47.658;9.166;2022-11-15T16:17:37;10.70;44.00
6496;DHT22;3281;47.658;9.166;2022-11-15T16:20:08;10.80;43.30
6496;DHT22;3281;47.658;9.166;2022-11-15T16:22:41;10.70;44.40
6496;DHT22;3281;47.658;9.166;2022-11-15T16:25:08;10.70;45.90
6496;DHT22;3281;47.658;9.166;2022-11-15T16:27:35;10.70;47.30
6496;DHT22;3281;47.658;9.166;2022-11-15T16:30:07;10.80;45.70
6496;DHT22;3281;47.658;9.166;2022-11-15T16:32:35;10.80;46.90
6496;DHT22;3281;47.658;9.166;2022-11-15T16:35:02;10.70;47.40
6496;DHT22;3281;47.658;9.166;2022-11-15T16:37:31;10.70;47.60
6496;DHT22;3281;47.658;9.166;2022-11-15T16:39:58;10.60;44.20
6496;DHT22;3281;47.658;9.166;2022-11-15T16:42:24;10.60;47.80